Terminal Aerodrome Forecast
Issued by NWS

Home | Current Version | Previous Version | Text Only | Print | Product List | Glossary On
Versions: 1 2 3 4 5 6 7 8 9 10 11 12 13 14 15 16 17 18 19
000
FTUS46 KSEW 250521
TAFHQM
TAF
KHQM 250521Z 2506/2606 13010KT P6SM VCSH SCT030 BKN040
      TEMPO 2506/2510 -SHRA
     FM251000 09009KT P6SM SCT040 OVC070
     FM251700 05008KT P6SM OVC040
     FM252200 05012KT P6SM -RA OVC040=

USA.gov is the U.S. government's official web portal to all federal, state and local government web resources and services.